createdAt,value
2019-01-05T00:00:04.014Z,17.3
2019-01-05T00:01:03.695Z,23.4
2019-01-05T00:02:04.540Z,18.4
2019-01-05T00:03:03.539Z,19.4
2019-01-05T00:04:02.921Z,15.8
2019-01-05T00:05:03.127Z,15.8
2019-01-05T00:06:03.095Z,15.8
2019-01-05T00:07:03.748Z,19.4
2019-01-05T00:08:03.104Z,19.4
2019-01-05T00:09:03.467Z,17.3
2019-01-05T00:10:03.319Z,17.3
2019-01-05T00:11:03.295Z,15.8
2019-01-05T00:12:03.163Z,15.8
2019-01-05T00:13:03.079Z,18.4
2019-01-05T00:15:04.133Z,19.4
2019-01-05T00:16:03.349Z,17.3
2019-01-05T00:18:02.266Z,19.4
2019-01-05T00:19:03.662Z,20.9
2019-01-05T00:20:03.373Z,20.9
2019-01-05T00:21:03.792Z,22
2019-01-05T00:22:03.505Z,19.4
2019-01-05T00:23:03.091Z,25.6
2019-01-05T00:24:03.282Z,22
2019-01-05T00:25:03.991Z,24.5
2019-01-05T00:26:03.165Z,24.5
2019-01-05T00:27:03.589Z,18.4
2019-01-05T00:28:02.367Z,14.8
2019-01-05T00:29:03.920Z,19.4
2019-01-05T00:30:03.677Z,14.8
2019-01-05T00:31:03.517Z,15.8
2019-01-05T00:32:03.384Z,14.8
2019-01-05T00:33:03.785Z,18.4
2019-01-05T00:34:04.220Z,17.3
2019-01-05T00:35:03.656Z,18.4
2019-01-05T00:36:03.636Z,18.4
2019-01-05T00:37:03.383Z,19.4
2019-01-05T00:38:03.341Z,13.3
2019-01-05T00:39:04.855Z,19.4
2019-01-05T00:40:03.558Z,24.5
2019-01-05T00:41:03.398Z,24.5
2019-01-05T00:42:03.671Z,18.4
2019-01-05T00:44:03.057Z,18.4
2019-01-05T00:45:03.020Z,15.8
2019-01-05T00:46:02.613Z,15.8
2019-01-05T00:47:04.013Z,14.8
2019-01-05T00:48:03.029Z,19.4
2019-01-05T00:49:03.974Z,19.4
2019-01-05T00:50:03.609Z,25.6
2019-01-05T00:51:03.481Z,20.9
2019-01-05T00:52:03.148Z,20.9
2019-01-05T00:53:03.782Z,14.8
2019-01-05T00:54:03.558Z,18.4
2019-01-05T00:55:03.666Z,17.3
2019-01-05T00:56:05.001Z,17.3
2019-01-05T00:57:03.769Z,24.5
2019-01-05T00:58:03.357Z,22
2019-01-05T00:59:03.445Z,17.3
2019-01-05T01:00:03.981Z,17.3
2019-01-05T01:01:03.715Z,17.3
2019-01-05T01:02:03.384Z,17.3
2019-01-05T01:03:03.037Z,17.3
2019-01-05T01:04:03.163Z,17.3
2019-01-05T01:05:03.450Z,17.3
2019-01-05T01:07:03.142Z,17.3
2019-01-05T01:08:02.988Z,17.3
2019-01-05T01:09:03.718Z,15.8
2019-01-05T01:10:02.523Z,17.3
2019-01-05T01:11:03.213Z,17.3
2019-01-05T01:12:03.114Z,17.3
2019-01-05T01:13:03.741Z,14.8
2019-01-05T01:14:02.903Z,14.8
2019-01-05T01:15:03.070Z,14.8
2019-01-05T01:16:01.862Z,17.3
2019-01-05T01:17:03.811Z,18.4
2019-01-05T01:18:03.010Z,17.3
2019-01-05T01:19:03.848Z,15.8
2019-01-05T01:20:06.974Z,15.8
2019-01-05T01:21:04.026Z,20.9
2019-01-05T01:22:03.058Z,22
2019-01-05T01:23:03.436Z,24.5
2019-01-05T01:24:03.439Z,24.5
2019-01-05T01:25:02.871Z,20.9
2019-01-05T01:26:03.575Z,22
2019-01-05T01:27:03.118Z,20.9
2019-01-05T01:28:03.076Z,20.9
2019-01-05T01:29:03.011Z,18.4
2019-01-05T01:30:03.188Z,22
2019-01-05T01:31:03.488Z,23.4
2019-01-05T01:32:03.184Z,20.9
2019-01-05T01:33:03.437Z,18.4
2019-01-05T01:34:03.153Z,18.4
2019-01-05T01:35:02.304Z,15.8
2019-01-05T01:36:04.285Z,15.8
2019-01-05T01:37:03.841Z,17.3
2019-01-05T01:38:03.001Z,14.8
2019-01-05T01:39:03.933Z,20.9
2019-01-05T01:40:03.591Z,20.9
2019-01-05T01:41:03.621Z,18.4
2019-01-05T01:42:03.324Z,18.4
2019-01-05T01:43:03.814Z,17.3
2019-01-05T01:44:03.330Z,17.3
2019-01-05T01:45:03.500Z,19.4
2019-01-05T01:46:03.043Z,19.4
2019-01-05T01:47:03.838Z,17.3
2019-01-05T01:48:03.974Z,17.3
2019-01-05T01:49:03.829Z,18.4
2019-01-05T01:50:03.347Z,18.4
2019-01-05T01:51:03.601Z,17.3
2019-01-05T01:52:03.063Z,17.3
2019-01-05T01:53:03.319Z,15.8
2019-01-05T01:54:02.897Z,20.9
2019-01-05T01:55:03.334Z,20.9
2019-01-05T01:56:03.017Z,20.9
2019-01-05T01:57:03.166Z,15.8
2019-01-05T01:58:03.680Z,14.8
2019-01-05T01:59:03.825Z,20.9
2019-01-05T02:00:03.575Z,20.9
2019-01-05T02:01:03.091Z,22
2019-01-05T02:02:03.783Z,20.9
2019-01-05T02:03:06.398Z,17.3
2019-01-05T02:04:04.801Z,17.3
2019-01-05T02:05:03.880Z,19.4
2019-01-05T02:06:04.151Z,18.4
2019-01-05T02:07:03.045Z,18.4
2019-01-05T02:08:03.341Z,20.9
2019-01-05T02:09:03.537Z,18.4
2019-01-05T02:10:03.766Z,18.4
2019-01-05T02:11:03.153Z,18.4
2019-01-05T02:12:03.699Z,18.4
2019-01-05T02:13:03.287Z,17.3
2019-01-05T02:14:03.966Z,22
2019-01-05T02:15:03.187Z,18.4
2019-01-05T02:16:03.442Z,22
2019-01-05T02:17:04.109Z,22
2019-01-05T02:19:03.500Z,17.3
2019-01-05T02:20:03.297Z,18.4
2019-01-05T02:21:03.623Z,18.4
2019-01-05T02:22:01.817Z,19.4
2019-01-05T02:23:03.507Z,17.3
2019-01-05T02:24:03.256Z,17.3
2019-01-05T02:25:03.223Z,20.9
2019-01-05T02:26:03.834Z,18.4
2019-01-05T02:27:03.461Z,18.4
2019-01-05T02:28:03.810Z,18.4
2019-01-05T02:29:03.800Z,23.4
2019-01-05T02:30:03.828Z,19.4
2019-01-05T02:31:03.695Z,19.4
2019-01-05T02:32:03.092Z,23.4
2019-01-05T02:33:03.542Z,19.4
2019-01-05T02:34:03.501Z,19.4
2019-01-05T02:35:03.841Z,15.8
2019-01-05T02:36:04.947Z,15.8
2019-01-05T02:37:03.073Z,18.4
2019-01-05T02:38:03.937Z,20.9
2019-01-05T02:39:03.836Z,18.4
2019-01-05T02:40:03.543Z,15.8
2019-01-05T02:41:03.947Z,20.9
2019-01-05T02:42:02.542Z,22
2019-01-05T02:43:03.917Z,25.6
2019-01-05T02:44:03.723Z,23.4
2019-01-05T02:45:03.322Z,24.5
2019-01-05T02:46:03.186Z,20.9
2019-01-05T02:47:02.887Z,22
2019-01-05T02:48:03.490Z,14.8
2019-01-05T02:49:03.848Z,20.9
2019-01-05T02:50:03.771Z,17.3
2019-01-05T02:51:03.214Z,17.3
2019-01-05T02:52:03.089Z,19.4
2019-01-05T02:53:04.267Z,22
2019-01-05T02:54:03.657Z,20.9
2019-01-05T02:55:03.813Z,18.4
2019-01-05T02:56:03.335Z,19.4
2019-01-05T02:57:03.404Z,18.4
2019-01-05T02:58:03.178Z,22
2019-01-05T02:59:03.716Z,27
2019-01-05T03:00:03.520Z,27
2019-01-05T03:01:03.661Z,20.9
2019-01-05T03:02:04.109Z,18.4
2019-01-05T03:03:03.477Z,18.4
2019-01-05T03:04:03.366Z,18.4
2019-01-05T03:05:03.033Z,18.4
2019-01-05T03:06:03.595Z,18.4
2019-01-05T03:07:03.620Z,18.4
2019-01-05T03:08:03.617Z,18.4
2019-01-05T03:09:04.131Z,20.9
2019-01-05T03:10:03.678Z,17.3
2019-01-05T03:11:03.894Z,17.3
2019-01-05T03:12:03.090Z,17.3
2019-01-05T03:13:03.887Z,17.3
2019-01-05T03:14:03.734Z,20.9
2019-01-05T03:15:03.623Z,19.4
2019-01-05T03:16:03.268Z,19.4
2019-01-05T03:17:02.951Z,15.8
2019-01-05T03:18:03.714Z,15.8
2019-01-05T03:19:03.801Z,15.8
2019-01-05T03:20:03.526Z,14.8
2019-01-05T03:21:03.151Z,14.8
2019-01-05T03:22:03.715Z,17.3
2019-01-05T03:23:03.458Z,17.3
2019-01-05T03:24:04.850Z,20.9
2019-01-05T03:25:03.397Z,18.4
2019-01-05T03:26:02.952Z,18.4
2019-01-05T03:27:02.436Z,24.5
2019-01-05T03:28:03.796Z,19.4
2019-01-05T03:29:03.679Z,14.8
2019-01-05T03:30:03.892Z,17.3
2019-01-05T03:31:03.300Z,14.8
2019-01-05T03:32:04.057Z,19.4
2019-01-05T03:33:03.133Z,17.3
2019-01-05T03:34:03.760Z,18.4
2019-01-05T03:35:03.413Z,18.4
2019-01-05T03:36:03.714Z,19.4
2019-01-05T03:37:03.213Z,19.4
2019-01-05T03:38:03.398Z,18.4
2019-01-05T03:39:03.498Z,18.4
2019-01-05T03:40:03.366Z,18.4
2019-01-05T03:41:03.808Z,14.8
2019-01-05T03:42:03.244Z,14.8
2019-01-05T03:43:03.251Z,20.9
2019-01-05T03:44:03.682Z,20.9
2019-01-05T03:45:03.046Z,18.4
2019-01-05T03:46:03.977Z,15.8
2019-01-05T03:47:03.330Z,14.8
2019-01-05T03:48:03.869Z,14.8
2019-01-05T03:49:03.253Z,18.4
2019-01-05T03:50:04.718Z,22
2019-01-05T03:51:04.017Z,22
2019-01-05T03:52:03.877Z,20.9
2019-01-05T03:53:02.243Z,17.3
2019-01-05T03:54:04.077Z,15.8
2019-01-05T03:55:03.455Z,20.9
2019-01-05T03:56:03.880Z,20.9
2019-01-05T03:57:03.193Z,17.3
2019-01-05T03:58:03.572Z,17.3
2019-01-05T03:59:03.431Z,17.3
2019-01-05T04:00:03.198Z,15.8
2019-01-05T04:01:04.069Z,18.4
2019-01-05T04:02:03.191Z,18.4
2019-01-05T04:03:03.134Z,19.4
2019-01-05T04:04:03.415Z,17.3
2019-01-05T04:05:03.367Z,17.3
2019-01-05T04:06:03.957Z,20.9
2019-01-05T04:07:03.362Z,20.9
2019-01-05T04:08:03.002Z,20.9
2019-01-05T04:09:03.567Z,17.3
2019-01-05T04:11:02.983Z,17.3
2019-01-05T04:12:03.252Z,17.3
2019-01-05T04:13:03.310Z,17.3
2019-01-05T04:14:03.633Z,13.3
2019-01-05T04:15:03.692Z,15.8
2019-01-05T04:16:03.541Z,18.4
2019-01-05T04:17:03.168Z,18.4
2019-01-05T04:18:02.327Z,15.8
2019-01-05T04:19:03.791Z,18.4
2019-01-05T04:20:03.863Z,18.4
2019-01-05T04:21:03.307Z,19.4
2019-01-05T04:22:03.308Z,19.4
2019-01-05T04:23:03.302Z,15.8
2019-01-05T04:24:03.329Z,22
2019-01-05T04:25:03.157Z,17.3
2019-01-05T04:26:03.240Z,17.3
2019-01-05T04:27:03.119Z,19.4
2019-01-05T04:28:02.966Z,20.9
2019-01-05T04:29:04.029Z,18.4
2019-01-05T04:30:03.585Z,18.4
2019-01-05T04:31:03.787Z,18.4
2019-01-05T04:32:03.332Z,20.9
2019-01-05T04:33:03.372Z,18.4
2019-01-05T04:36:02.304Z,14.8
2019-01-05T04:37:03.025Z,17.3
2019-01-05T04:38:03.898Z,17.3
2019-01-05T04:39:03.847Z,18.4
2019-01-05T04:40:03.746Z,23.4
2019-01-05T04:41:03.019Z,22
2019-01-05T04:42:03.519Z,19.4
2019-01-05T04:43:03.348Z,15.8
2019-01-05T04:44:02.999Z,14.8
2019-01-05T04:45:03.659Z,20.9
2019-01-05T04:46:03.704Z,20.9
2019-01-05T04:47:03.241Z,20.9
2019-01-05T04:48:03.003Z,20.9
2019-01-05T04:49:03.209Z,15.8
2019-01-05T04:50:03.835Z,19.4
2019-01-05T04:51:03.038Z,15.8
2019-01-05T04:52:03.379Z,15.8
2019-01-05T04:53:03.054Z,19.4
2019-01-05T04:54:03.657Z,19.4
2019-01-05T04:55:03.306Z,17.3
2019-01-05T04:57:03.778Z,18.4
2019-01-05T04:58:02.330Z,19.4
2019-01-05T04:59:03.379Z,20.9
2019-01-05T05:00:02.076Z,20.9
2019-01-05T05:01:03.697Z,25.6
2019-01-05T05:02:03.251Z,25.6
2019-01-05T05:03:04.252Z,25.6
2019-01-05T05:04:03.992Z,25.6
2019-01-05T05:05:03.933Z,25.6
2019-01-05T05:06:03.374Z,25.6
2019-01-05T05:07:03.268Z,25.6
2019-01-05T05:08:04.007Z,25.6
2019-01-05T05:09:03.232Z,20.9
2019-01-05T05:10:03.878Z,20.9
2019-01-05T05:11:03.368Z,20.9
2019-01-05T05:12:03.954Z,20.9
2019-01-05T05:13:03.837Z,23.4
2019-01-05T05:14:03.263Z,23.4
2019-01-05T05:15:03.259Z,20.9
2019-01-05T05:16:03.609Z,20.9
2019-01-05T05:17:03.212Z,20.9
2019-01-05T05:18:03.053Z,23.4
2019-01-05T05:19:03.288Z,22
2019-01-05T05:20:03.746Z,24.5
2019-01-05T05:21:03.804Z,24.5
2019-01-05T05:22:02.221Z,20.9
2019-01-05T05:23:03.792Z,18.4
2019-01-05T05:24:03.397Z,20.9
2019-01-05T05:25:03.454Z,24.5
2019-01-05T05:26:03.879Z,24.5
2019-01-05T05:27:03.449Z,24.5
2019-01-05T05:28:03.683Z,23.4
2019-01-05T05:29:03.512Z,20.9
2019-01-05T05:30:03.738Z,20.9
2019-01-05T05:31:03.368Z,20.9
2019-01-05T05:32:03.845Z,19.4
2019-01-05T05:33:03.507Z,19.4
2019-01-05T05:34:04.135Z,19.4
2019-01-05T05:35:03.612Z,20.9
2019-01-05T05:36:03.573Z,22
2019-01-05T05:37:03.283Z,22
2019-01-05T05:38:03.458Z,18.4
2019-01-05T05:39:03.041Z,18.4
2019-01-05T05:40:03.559Z,18.4
2019-01-05T05:41:02.999Z,18.4
2019-01-05T05:42:04.776Z,22
2019-01-05T05:43:03.374Z,23.4
2019-01-05T05:44:03.377Z,18.4
2019-01-05T05:45:03.756Z,24.5
2019-01-05T05:46:03.089Z,24.5
2019-01-05T05:47:03.099Z,19.4
2019-01-05T05:48:02.937Z,19.4
2019-01-05T05:49:03.290Z,19.4
2019-01-05T05:50:04.011Z,20.9
2019-01-05T05:51:03.074Z,18.4
2019-01-05T05:52:03.780Z,18.4
2019-01-05T05:53:03.647Z,17.3
2019-01-05T05:54:03.061Z,17.3
2019-01-05T05:55:03.463Z,17.3
2019-01-05T05:56:03.723Z,15.8
2019-01-05T05:57:03.468Z,17.3
2019-01-05T05:58:03.788Z,18.4
2019-01-05T05:59:03.333Z,18.4
2019-01-05T06:00:03.852Z,14.8
2019-01-05T06:01:03.047Z,14.8
2019-01-05T06:02:03.192Z,18.4
2019-01-05T06:03:03.150Z,13.3
2019-01-05T06:04:03.245Z,14.8
2019-01-05T06:06:03.539Z,12.2
2019-01-05T06:08:03.767Z,13.3
2019-01-05T06:09:02.603Z,15.8
2019-01-05T06:10:03.850Z,15.8
2019-01-05T06:11:02.914Z,18.4
2019-01-05T06:12:04.683Z,17.3
2019-01-05T06:13:03.654Z,17.3
2019-01-05T06:14:03.757Z,17.3
2019-01-05T06:15:03.913Z,15.8
2019-01-05T06:16:02.914Z,15.8
2019-01-05T06:17:03.351Z,15.8
2019-01-05T06:18:03.897Z,14.8
2019-01-05T06:19:03.264Z,14.8
2019-01-05T06:20:03.050Z,14.8
2019-01-05T06:21:03.892Z,14.8
2019-01-05T06:22:03.529Z,19.4
2019-01-05T06:23:03.778Z,19.4
2019-01-05T06:24:04.133Z,19.4
2019-01-05T06:25:03.229Z,15.8
2019-01-05T06:26:03.915Z,20.9
2019-01-05T06:27:03.219Z,20.9
2019-01-05T06:28:03.537Z,15.8
2019-01-05T06:29:03.530Z,15.8
2019-01-05T06:30:03.055Z,13.3
2019-01-05T06:31:03.208Z,15.8
2019-01-05T06:32:03.397Z,15.8
2019-01-05T06:33:03.863Z,13.3
2019-01-05T06:34:03.808Z,13.3
2019-01-05T06:35:02.368Z,15.8
2019-01-05T06:36:02.909Z,12.2
2019-01-05T06:37:03.783Z,15.8
2019-01-05T06:38:03.093Z,14.8
2019-01-05T06:39:03.493Z,14.8
2019-01-05T06:40:03.677Z,14.8
2019-01-05T06:41:03.426Z,12.2
2019-01-05T06:42:03.301Z,17.3
2019-01-05T06:43:03.341Z,17.3
2019-01-05T06:44:03.155Z,14.8
2019-01-05T06:45:03.517Z,12.2
2019-01-05T06:46:03.442Z,11.2
2019-01-05T06:47:03.057Z,15.8
2019-01-05T06:48:02.830Z,15.8
2019-01-05T06:49:03.329Z,18.4
2019-01-05T06:50:03.727Z,15.8
2019-01-05T06:51:03.127Z,15.8
2019-01-05T06:53:03.924Z,13.3
2019-01-05T06:54:03.475Z,14.8
2019-01-05T06:55:03.312Z,14.8
2019-01-05T06:56:02.601Z,12.2
2019-01-05T06:57:03.857Z,14.8
2019-01-05T06:58:02.741Z,15.8
2019-01-05T06:59:03.687Z,15.8
2019-01-05T07:00:03.760Z,15.8
2019-01-05T07:01:03.673Z,17.3
2019-01-05T07:02:03.248Z,17.3
2019-01-05T07:03:03.038Z,17.3
2019-01-05T07:04:03.479Z,17.3
2019-01-05T07:05:03.264Z,17.3
2019-01-05T07:06:03.125Z,17.3
2019-01-05T07:07:03.742Z,17.3
2019-01-05T07:08:02.916Z,17.3
2019-01-05T07:09:02.952Z,13.3
2019-01-05T07:10:03.777Z,13.3
2019-01-05T07:11:03.198Z,17.3
2019-01-05T07:12:03.986Z,14.8
2019-01-05T07:13:03.773Z,17.3
2019-01-05T07:14:03.016Z,17.3
2019-01-05T07:15:03.932Z,17.3
2019-01-05T07:16:03.660Z,17.3
2019-01-05T07:17:03.276Z,17.3
2019-01-05T07:18:03.404Z,17.3
2019-01-05T07:19:03.665Z,18.4
2019-01-05T07:20:03.809Z,15.8
2019-01-05T07:21:03.112Z,14.8
2019-01-05T07:22:02.737Z,14.8
2019-01-05T07:23:03.469Z,14.8
2019-01-05T07:24:03.217Z,13.3
2019-01-05T07:25:03.783Z,23.4
2019-01-05T07:26:03.231Z,15.8
2019-01-05T07:27:03.977Z,12.2
2019-01-05T07:28:03.048Z,14.8
2019-01-05T07:29:03.701Z,14.8
2019-01-05T07:30:03.312Z,15.8
2019-01-05T07:31:03.953Z,15.8
2019-01-05T07:32:03.802Z,17.3
2019-01-05T07:33:03.229Z,13.3
2019-01-05T07:34:05.447Z,13.3
2019-01-05T07:35:03.244Z,14.8
2019-01-05T07:36:03.542Z,19.4
2019-01-05T07:37:03.110Z,24.5
2019-01-05T07:38:03.082Z,24.5
2019-01-05T07:39:03.672Z,23.4
2019-01-05T07:41:03.993Z,17.3
2019-01-05T07:42:03.378Z,13.3
2019-01-05T07:43:03.234Z,14.8
2019-01-05T07:44:03.833Z,19.4
2019-01-05T07:45:03.071Z,17.3
2019-01-05T07:46:03.357Z,17.3
2019-01-05T07:47:03.372Z,19.4
2019-01-05T07:48:03.118Z,19.4
2019-01-05T07:49:03.258Z,17.3
2019-01-05T07:50:03.703Z,19.4
2019-01-05T07:51:03.858Z,15.8
2019-01-05T07:52:03.245Z,14.8
2019-01-05T07:53:03.029Z,17.3
2019-01-05T07:54:03.837Z,15.8
2019-01-05T07:55:03.639Z,20.9
2019-01-05T07:56:03.959Z,17.3
2019-01-05T07:57:03.272Z,15.8
2019-01-05T07:58:03.348Z,17.3
2019-01-05T07:59:03.306Z,24.5
2019-01-05T08:00:03.844Z,17.3
2019-01-05T08:01:03.557Z,20.9
2019-01-05T08:02:04.069Z,19.4
2019-01-05T08:04:03.617Z,19.4
2019-01-05T08:05:02.879Z,20.9
2019-01-05T08:06:02.959Z,20.9
2019-01-05T08:07:02.336Z,17.3
2019-01-05T08:08:03.150Z,14.8
2019-01-05T08:09:03.351Z,22
2019-01-05T08:10:03.926Z,19.4
2019-01-05T08:11:03.030Z,18.4
2019-01-05T08:12:03.681Z,18.4
2019-01-05T08:13:03.185Z,18.4
2019-01-05T08:14:03.376Z,18.4
2019-01-05T08:15:03.917Z,15.8
2019-01-05T08:16:03.195Z,15.8
2019-01-05T08:17:03.209Z,15.8
2019-01-05T08:18:03.025Z,23.4
2019-01-05T08:19:03.566Z,18.4
2019-01-05T08:20:09.451Z,19.4
2019-01-05T08:21:03.647Z,17.3
2019-01-05T08:22:03.306Z,17.3
2019-01-05T08:23:03.310Z,18.4
2019-01-05T08:24:02.999Z,19.4
2019-01-05T08:25:03.313Z,20.9
2019-01-05T08:26:02.979Z,19.4
2019-01-05T08:28:03.623Z,17.3
2019-01-05T08:29:03.433Z,22
2019-01-05T08:30:04.854Z,22
2019-01-05T08:31:02.919Z,22
2019-01-05T08:32:03.743Z,22
2019-01-05T08:33:03.220Z,22
2019-01-05T08:34:03.851Z,22
2019-01-05T08:35:03.024Z,20.9
2019-01-05T08:36:03.836Z,20.9
2019-01-05T08:37:03.178Z,20.9
2019-01-05T08:38:03.586Z,24.5
2019-01-05T08:39:03.918Z,18.4
2019-01-05T08:40:03.609Z,19.4
2019-01-05T08:41:03.319Z,19.4
2019-01-05T08:42:03.562Z,17.3
2019-01-05T08:43:03.526Z,17.3
2019-01-05T08:44:03.325Z,19.4
2019-01-05T08:45:12.811Z,20.9
2019-01-05T08:46:03.535Z,17.3
2019-01-05T08:47:03.227Z,15.8
2019-01-05T08:48:05.259Z,15.8
2019-01-05T08:49:03.627Z,20.9
2019-01-05T08:50:03.506Z,23.4
2019-01-05T08:51:03.536Z,23.4
2019-01-05T08:52:03.479Z,24.5
2019-01-05T08:53:03.258Z,19.4
2019-01-05T08:54:03.199Z,23.4
2019-01-05T08:55:03.984Z,20.9
2019-01-05T08:57:04.335Z,19.4
2019-01-05T08:58:02.540Z,23.4
2019-01-05T08:59:03.313Z,20.9
2019-01-05T09:00:03.269Z,22
2019-01-05T09:01:03.526Z,22
2019-01-05T09:02:03.512Z,22
2019-01-05T09:03:03.533Z,22
2019-01-05T09:04:03.081Z,22
2019-01-05T09:05:03.031Z,22
2019-01-05T09:06:03.623Z,22
2019-01-05T09:07:03.232Z,22
2019-01-05T09:08:03.340Z,22
2019-01-05T09:09:03.276Z,15.8
2019-01-05T09:10:03.755Z,20.9
2019-01-05T09:11:03.802Z,18.4
2019-01-05T09:12:03.319Z,18.4
2019-01-05T09:13:03.283Z,18.4
2019-01-05T09:14:04.397Z,18.4
2019-01-05T09:15:03.576Z,19.4
2019-01-05T09:16:03.513Z,22
2019-01-05T09:17:03.344Z,22
2019-01-05T09:18:04.003Z,17.3
2019-01-05T09:19:03.809Z,22
2019-01-05T09:20:02.523Z,20.9
2019-01-05T09:21:02.355Z,19.4
2019-01-05T09:22:03.309Z,19.4
2019-01-05T09:23:03.377Z,19.4
2019-01-05T09:24:03.964Z,19.4
2019-01-05T09:25:03.679Z,22
2019-01-05T09:26:03.444Z,19.4
2019-01-05T09:27:02.868Z,19.4
2019-01-05T09:28:03.545Z,22
2019-01-05T09:29:03.462Z,22
2019-01-05T09:30:03.778Z,20.9
2019-01-05T09:31:03.251Z,18.4
2019-01-05T09:32:03.244Z,18.4
2019-01-05T09:33:03.719Z,18.4
2019-01-05T09:34:03.588Z,18.4
2019-01-05T09:35:03.574Z,25.6
2019-01-05T09:36:03.337Z,27
2019-01-05T09:37:03.642Z,20.9
2019-01-05T09:38:03.442Z,20.9
2019-01-05T09:39:02.984Z,23.4
2019-01-05T09:40:03.785Z,22
2019-01-05T09:41:02.694Z,27
2019-01-05T09:42:03.157Z,20.9
2019-01-05T09:43:03.149Z,23.4
2019-01-05T09:44:02.936Z,25.6
2019-01-05T09:45:03.986Z,25.6
2019-01-05T09:46:03.372Z,28.1
2019-01-05T09:47:03.613Z,31.7
2019-01-05T09:48:03.324Z,31.7
2019-01-05T09:49:03.277Z,28.1
2019-01-05T09:50:04.039Z,25.6
2019-01-05T09:51:03.133Z,24.5
2019-01-05T09:52:03.723Z,24.5
2019-01-05T09:53:03.102Z,25.6
2019-01-05T09:54:03.709Z,25.6
2019-01-05T09:55:03.566Z,22
2019-01-05T09:56:02.838Z,20.9
2019-01-05T09:57:03.098Z,25.6
2019-01-05T09:58:04.009Z,25.6
2019-01-05T09:59:03.273Z,24.5
2019-01-05T10:01:03.207Z,23.4
2019-01-05T10:02:03.663Z,25.6
2019-01-05T10:03:03.749Z,25.6
2019-01-05T10:04:02.018Z,22
2019-01-05T10:05:04.049Z,29.5
2019-01-05T10:06:03.652Z,29.5
2019-01-05T10:07:03.552Z,28.1
2019-01-05T10:08:03.907Z,24.5
2019-01-05T10:09:03.121Z,24.5
2019-01-05T10:10:03.429Z,22
2019-01-05T10:11:03.381Z,29.5
2019-01-05T10:12:03.861Z,29.5
2019-01-05T10:13:03.320Z,23.4
2019-01-05T10:14:02.893Z,20.9
2019-01-05T10:15:03.795Z,20.9
2019-01-05T10:16:03.607Z,20.9
2019-01-05T10:17:03.876Z,24.5
2019-01-05T10:18:03.460Z,24.5
2019-01-05T10:19:03.849Z,24.5
2019-01-05T10:20:03.719Z,24.5
2019-01-05T10:21:04.046Z,18.4
2019-01-05T10:22:03.551Z,27
2019-01-05T10:23:03.182Z,27
2019-01-05T10:24:02.787Z,25.6
2019-01-05T10:25:03.470Z,25.6
2019-01-05T10:26:03.589Z,22
2019-01-05T10:27:03.132Z,25.6
2019-01-05T10:28:03.800Z,23.4
2019-01-05T10:29:03.337Z,23.4
2019-01-05T10:30:03.964Z,24.5
2019-01-05T10:31:04.788Z,24.5
2019-01-05T10:32:03.598Z,23.4
2019-01-05T10:33:03.584Z,23.4
2019-01-05T10:34:03.073Z,24.5
2019-01-05T10:35:03.714Z,20.9
2019-01-05T10:36:06.866Z,20.9
2019-01-05T10:37:03.790Z,25.6
2019-01-05T10:38:03.447Z,25.6
2019-01-05T10:39:03.203Z,22
2019-01-05T10:40:03.929Z,22
2019-01-05T10:41:03.323Z,18.4
2019-01-05T10:42:03.664Z,18.4
2019-01-05T10:43:03.480Z,22
2019-01-05T10:44:03.571Z,27
2019-01-05T10:45:03.310Z,23.4
2019-01-05T10:46:02.616Z,23.4
2019-01-05T10:47:03.134Z,29.5
2019-01-05T10:48:02.584Z,24.5
2019-01-05T10:49:03.059Z,22
2019-01-05T10:50:03.842Z,22
2019-01-05T10:51:03.144Z,24.5
2019-01-05T10:52:03.458Z,20.9
2019-01-05T10:53:03.232Z,27
2019-01-05T10:54:03.797Z,27
2019-01-05T10:55:04.356Z,28.1
2019-01-05T10:56:03.338Z,28.1
2019-01-05T10:57:03.230Z,24.5
2019-01-05T10:58:03.714Z,24.5
2019-01-05T10:59:03.687Z,27
2019-01-05T11:00:04.939Z,27
2019-01-05T11:01:03.000Z,24.5
2019-01-05T11:02:03.662Z,24.5
2019-01-05T11:03:03.720Z,24.5
2019-01-05T11:04:03.067Z,24.5
2019-01-05T11:05:04.062Z,24.5
2019-01-05T11:06:03.425Z,24.5
2019-01-05T11:07:03.818Z,24.5
2019-01-05T11:08:02.190Z,24.5
2019-01-05T11:09:03.572Z,27
2019-01-05T11:10:03.400Z,27
2019-01-05T11:11:03.789Z,24.5
2019-01-05T11:12:03.702Z,24.5
2019-01-05T11:13:03.087Z,24.5
2019-01-05T11:14:03.683Z,22
2019-01-05T11:15:03.365Z,25.6
2019-01-05T11:16:03.035Z,25.6
2019-01-05T11:17:03.182Z,23.4
2019-01-05T11:18:02.991Z,28.1
2019-01-05T11:19:03.758Z,23.4
2019-01-05T11:20:03.504Z,23.4
2019-01-05T11:21:03.460Z,24.5
2019-01-05T11:22:03.799Z,22
2019-01-05T11:23:03.325Z,19.4
2019-01-05T11:24:02.918Z,19.4
2019-01-05T11:25:04.466Z,25.6
2019-01-05T11:26:03.422Z,22
2019-01-05T11:27:03.142Z,28.1
2019-01-05T11:28:03.906Z,30.6
2019-01-05T11:29:03.451Z,25.6
2019-01-05T11:30:03.763Z,24.5
2019-01-05T11:31:03.226Z,23.4
2019-01-05T11:32:03.714Z,23.4
2019-01-05T11:33:02.553Z,23.4
2019-01-05T11:34:03.402Z,24.5
2019-01-05T11:35:03.354Z,24.5
2019-01-05T11:36:03.391Z,23.4
2019-01-05T11:37:03.020Z,23.4
2019-01-05T11:38:03.515Z,25.6
2019-01-05T11:39:03.235Z,22
2019-01-05T11:40:04.023Z,22
2019-01-05T11:41:03.170Z,22
2019-01-05T11:42:05.660Z,22
2019-01-05T11:43:03.291Z,20.9
2019-01-05T11:44:03.067Z,23.4
2019-01-05T11:45:03.691Z,22
2019-01-05T11:46:03.302Z,29.5
2019-01-05T11:47:03.800Z,29.5
2019-01-05T11:48:03.937Z,20.9
2019-01-05T11:49:03.189Z,20.9
2019-01-05T11:50:03.053Z,23.4
2019-01-05T11:51:03.720Z,22
2019-01-05T11:52:03.800Z,22
2019-01-05T11:53:03.344Z,28.1
2019-01-05T11:54:05.453Z,28.1
2019-01-05T11:55:03.114Z,24.5
2019-01-05T11:56:02.446Z,27
2019-01-05T11:57:03.266Z,24.5
2019-01-05T11:58:03.118Z,23.4
2019-01-05T11:59:03.884Z,23.4
2019-01-05T12:00:03.911Z,23.4
2019-01-05T12:01:03.700Z,24.5
2019-01-05T12:02:03.425Z,23.4
2019-01-05T12:03:03.251Z,23.4
2019-01-05T12:04:03.268Z,23.4
2019-01-05T12:05:03.758Z,23.4
2019-01-05T12:06:03.890Z,18.4
2019-01-05T12:07:03.440Z,18.4
2019-01-05T12:08:03.826Z,23.4
2019-01-05T12:09:08.455Z,23.4
2019-01-05T12:10:03.291Z,19.4
2019-01-05T12:11:03.452Z,20.9
2019-01-05T12:12:03.872Z,24.5
2019-01-05T12:13:04.366Z,20.9
2019-01-05T12:14:03.418Z,20.9
2019-01-05T12:17:03.342Z,22
2019-01-05T12:18:03.279Z,23.4
2019-01-05T12:19:02.351Z,20.9
2019-01-05T12:20:02.645Z,24.5
2019-01-05T12:21:03.429Z,24.5
2019-01-05T12:22:04.068Z,23.4
2019-01-05T12:23:05.780Z,23.4
2019-01-05T12:24:03.598Z,24.5
2019-01-05T12:25:03.851Z,24.5
2019-01-05T12:26:03.368Z,22
2019-01-05T12:27:03.084Z,22
2019-01-05T12:28:03.766Z,23.4
2019-01-05T12:29:03.584Z,23.4
2019-01-05T12:30:03.414Z,23.4
2019-01-05T12:31:03.733Z,20.9
2019-01-05T12:32:03.574Z,22
2019-01-05T12:33:03.650Z,22
2019-01-05T12:34:03.361Z,22
2019-01-05T12:35:03.818Z,19.4
2019-01-05T12:36:03.457Z,19.4
2019-01-05T12:37:03.190Z,19.4
2019-01-05T12:38:03.437Z,19.4
2019-01-05T12:39:03.074Z,20.9
2019-01-05T12:40:04.024Z,20.9
2019-01-05T12:41:03.665Z,20.9
2019-01-05T12:42:02.302Z,20.9
2019-01-05T12:43:03.418Z,20.9
2019-01-05T12:44:03.912Z,22
2019-01-05T12:45:03.335Z,20.9
2019-01-05T12:46:03.779Z,20.9
2019-01-05T12:47:04.053Z,15.8
2019-01-05T12:48:03.733Z,15.8
2019-01-05T12:49:02.996Z,24.5
2019-01-05T12:50:03.267Z,18.4
2019-01-05T12:51:03.862Z,18.4
2019-01-05T12:52:03.922Z,17.3
2019-01-05T12:53:03.762Z,19.4
2019-01-05T12:54:03.393Z,18.4
2019-01-05T12:55:03.947Z,18.4
2019-01-05T12:56:03.403Z,19.4
2019-01-05T12:57:03.025Z,22
2019-01-05T12:58:03.112Z,22
2019-01-05T12:59:03.844Z,23.4
2019-01-05T13:00:04.377Z,23.4
2019-01-05T13:01:03.238Z,19.4
2019-01-05T13:02:03.275Z,20.9
2019-01-05T13:03:03.575Z,20.9
2019-01-05T13:04:03.246Z,20.9
2019-01-05T13:05:03.273Z,20.9
2019-01-05T13:06:03.353Z,20.9
2019-01-05T13:07:03.578Z,20.9
2019-01-05T13:08:03.264Z,20.9
2019-01-05T13:09:03.789Z,20.9
2019-01-05T13:10:02.951Z,22
2019-01-05T13:11:03.750Z,22
2019-01-05T13:12:03.287Z,18.4
2019-01-05T13:13:03.707Z,18.4
2019-01-05T13:14:03.464Z,23.4
2019-01-05T13:15:03.314Z,20.9
2019-01-05T13:16:04.237Z,20.9
2019-01-05T13:17:03.491Z,18.4
2019-01-05T13:18:03.715Z,18.4
2019-01-05T13:19:03.009Z,20.9
2019-01-05T13:20:03.817Z,20.9
2019-01-05T13:21:03.803Z,20.9
2019-01-05T13:22:03.337Z,17.3
2019-01-05T13:23:03.405Z,23.4
2019-01-05T13:24:03.908Z,23.4
2019-01-05T13:25:04.113Z,23.4
2019-01-05T13:26:03.266Z,25.6
2019-01-05T13:27:03.129Z,22
2019-01-05T13:28:03.589Z,22
2019-01-05T13:29:03.288Z,17.3
2019-01-05T13:30:04.293Z,19.4
2019-01-05T13:31:03.668Z,24.5
2019-01-05T13:32:03.737Z,24.5
2019-01-05T13:33:03.572Z,18.4
2019-01-05T13:34:03.179Z,18.4
2019-01-05T13:35:02.142Z,19.4
2019-01-05T13:36:02.707Z,23.4
2019-01-05T13:37:02.839Z,23.4
2019-01-05T13:38:02.643Z,23.4
2019-01-05T13:39:02.249Z,22
2019-01-05T13:40:02.208Z,22
2019-01-05T13:41:02.448Z,19.4
2019-01-05T13:42:02.384Z,23.4
2019-01-05T13:43:02.931Z,22